sensor_id;sensor_type;location;lat;lon;timestamp;P1;durP1;ratioP1;P2;durP2;ratioP2
351;SDS011;164;50.784;6.496;2023-03-20T00:00:24;23.80;;;19.40;;
351;SDS011;164;50.784;6.496;2023-03-20T00:02:53;22.30;;;19.23;;
351;SDS011;164;50.784;6.496;2023-03-20T00:05:21;20.58;;;19.15;;
351;SDS011;164;50.784;6.496;2023-03-20T00:07:48;24.75;;;22.65;;
351;SDS011;164;50.784;6.496;2023-03-20T00:10:17;25.88;;;22.48;;
351;SDS011;164;50.784;6.496;2023-03-20T00:12:46;28.17;;;22.38;;
351;SDS011;164;50.784;6.496;2023-03-20T00:15:18;25.40;;;21.95;;
351;SDS011;164;50.784;6.496;2023-03-20T00:17:48;25.50;;;21.98;;
351;SDS011;164;50.784;6.496;2023-03-20T00:20:16;29.45;;;24.63;;
351;SDS011;164;50.784;6.496;2023-03-20T00:22:43;26.98;;;24.95;;
351;SDS011;164;50.784;6.496;2023-03-20T00:25:11;25.52;;;23.27;;
351;SDS011;164;50.784;6.496;2023-03-20T00:27:40;30.80;;;26.17;;
351;SDS011;164;50.784;6.496;2023-03-20T00:32:56;27.20;;;23.85;;
351;SDS011;164;50.784;6.496;2023-03-20T00:35:25;25.10;;;22.30;;
351;SDS011;164;50.784;6.496;2023-03-20T00:37:53;22.35;;;20.80;;
351;SDS011;164;50.784;6.496;2023-03-20T00:40:21;28.55;;;23.15;;
351;SDS011;164;50.784;6.496;2023-03-20T00:42:50;22.92;;;20.77;;
351;SDS011;164;50.784;6.496;2023-03-20T00:45:22;26.80;;;23.27;;
351;SDS011;164;50.784;6.496;2023-03-20T00:47:49;25.50;;;21.20;;
351;SDS011;164;50.784;6.496;2023-03-20T00:50:18;22.40;;;21.08;;
351;SDS011;164;50.784;6.496;2023-03-20T00:52:46;26.55;;;22.05;;
351;SDS011;164;50.784;6.496;2023-03-20T00:55:13;25.13;;;20.70;;
351;SDS011;164;50.784;6.496;2023-03-20T00:57:42;25.90;;;21.33;;
351;SDS011;164;50.784;6.496;2023-03-20T01:00:16;24.25;;;21.58;;
351;SDS011;164;50.784;6.496;2023-03-20T01:02:45;23.63;;;18.35;;
351;SDS011;164;50.784;6.496;2023-03-20T01:05:12;24.55;;;20.05;;
351;SDS011;164;50.784;6.496;2023-03-20T01:07:40;19.90;;;18.90;;
351;SDS011;164;50.784;6.496;2023-03-20T01:10:08;20.08;;;18.30;;
351;SDS011;164;50.784;6.496;2023-03-20T01:12:36;18.27;;;17.40;;
351;SDS011;164;50.784;6.496;2023-03-20T01:15:06;18.40;;;16.92;;
351;SDS011;164;50.784;6.496;2023-03-20T01:17:39;20.00;;;16.65;;
351;SDS011;164;50.784;6.496;2023-03-20T01:20:08;20.58;;;16.10;;
351;SDS011;164;50.784;6.496;2023-03-20T01:22:39;19.08;;;15.30;;
351;SDS011;164;50.784;6.496;2023-03-20T01:25:07;21.23;;;18.10;;
351;SDS011;164;50.784;6.496;2023-03-20T01:27:35;16.88;;;16.02;;
351;SDS011;164;50.784;6.496;2023-03-20T01:30:04;17.27;;;16.38;;
351;SDS011;164;50.784;6.496;2023-03-20T01:32:32;18.55;;;16.60;;
351;SDS011;164;50.784;6.496;2023-03-20T01:35:01;16.27;;;15.27;;
351;SDS011;164;50.784;6.496;2023-03-20T01:37:28;17.75;;;14.65;;
351;SDS011;164;50.784;6.496;2023-03-20T01:39:57;16.90;;;15.23;;
351;SDS011;164;50.784;6.496;2023-03-20T01:42:26;14.82;;;13.25;;
351;SDS011;164;50.784;6.496;2023-03-20T01:44:53;15.38;;;14.63;;
351;SDS011;164;50.784;6.496;2023-03-20T01:47:21;17.90;;;15.02;;
351;SDS011;164;50.784;6.496;2023-03-20T01:52:36;13.77;;;13.05;;
351;SDS011;164;50.784;6.496;2023-03-20T01:55:03;19.25;;;14.40;;
351;SDS011;164;50.784;6.496;2023-03-20T01:57:30;18.33;;;14.70;;
351;SDS011;164;50.784;6.496;2023-03-20T01:59:59;17.20;;;14.02;;
351;SDS011;164;50.784;6.496;2023-03-20T02:02:28;15.32;;;14.07;;
351;SDS011;164;50.784;6.496;2023-03-20T02:04:57;16.60;;;14.25;;
351;SDS011;164;50.784;6.496;2023-03-20T02:07:26;17.33;;;16.40;;
351;SDS011;164;50.784;6.496;2023-03-20T02:09:55;19.05;;;16.05;;
351;SDS011;164;50.784;6.496;2023-03-20T02:12:22;17.08;;;16.20;;
351;SDS011;164;50.784;6.496;2023-03-20T02:14:50;17.35;;;15.82;;
351;SDS011;164;50.784;6.496;2023-03-20T02:17:17;16.05;;;15.25;;
351;SDS011;164;50.784;6.496;2023-03-20T02:19:47;20.02;;;14.65;;
351;SDS011;164;50.784;6.496;2023-03-20T02:25:09;15.35;;;14.10;;
351;SDS011;164;50.784;6.496;2023-03-20T02:27:43;15.05;;;14.05;;
351;SDS011;164;50.784;6.496;2023-03-20T02:30:26;14.30;;;13.60;;
351;SDS011;164;50.784;6.496;2023-03-20T02:33:18;16.15;;;15.13;;
351;SDS011;164;50.784;6.496;2023-03-20T02:36:04;17.25;;;16.25;;
351;SDS011;164;50.784;6.496;2023-03-20T02:38:43;15.55;;;14.68;;
351;SDS011;164;50.784;6.496;2023-03-20T02:41:13;15.95;;;14.90;;
351;SDS011;164;50.784;6.496;2023-03-20T02:43:44;18.27;;;15.43;;
351;SDS011;164;50.784;6.496;2023-03-20T02:46:12;19.25;;;14.50;;
351;SDS011;164;50.784;6.496;2023-03-20T02:48:43;14.15;;;13.13;;
351;SDS011;164;50.784;6.496;2023-03-20T02:51:14;15.97;;;15.00;;
351;SDS011;164;50.784;6.496;2023-03-20T02:53:47;15.40;;;13.88;;
351;SDS011;164;50.784;6.496;2023-03-20T02:56:19;15.75;;;13.45;;
351;SDS011;164;50.784;6.496;2023-03-20T02:58:48;14.30;;;13.43;;
351;SDS011;164;50.784;6.496;2023-03-20T03:01:19;17.42;;;14.73;;
351;SDS011;164;50.784;6.496;2023-03-20T03:03:48;15.23;;;14.43;;
351;SDS011;164;50.784;6.496;2023-03-20T03:06:17;14.50;;;13.18;;
351;SDS011;164;50.784;6.496;2023-03-20T03:08:47;14.88;;;13.10;;
351;SDS011;164;50.784;6.496;2023-03-20T03:11:16;14.63;;;13.88;;
351;SDS011;164;50.784;6.496;2023-03-20T03:13:45;14.18;;;12.70;;
351;SDS011;164;50.784;6.496;2023-03-20T03:16:15;13.10;;;12.40;;
351;SDS011;164;50.784;6.496;2023-03-20T03:18:44;14.82;;;13.70;;
351;SDS011;164;50.784;6.496;2023-03-20T03:21:12;16.02;;;14.13;;
351;SDS011;164;50.784;6.496;2023-03-20T03:23:42;14.73;;;13.60;;
351;SDS011;164;50.784;6.496;2023-03-20T03:26:13;14.68;;;13.93;;
351;SDS011;164;50.784;6.496;2023-03-20T03:28:43;15.10;;;14.25;;
351;SDS011;164;50.784;6.496;2023-03-20T03:31:13;17.42;;;14.60;;
351;SDS011;164;50.784;6.496;2023-03-20T03:33:43;15.57;;;14.30;;
351;SDS011;164;50.784;6.496;2023-03-20T03:36:12;15.77;;;14.98;;
351;SDS011;164;50.784;6.496;2023-03-20T03:38:42;20.48;;;16.05;;
351;SDS011;164;50.784;6.496;2023-03-20T03:41:16;16.60;;;14.63;;
351;SDS011;164;50.784;6.496;2023-03-20T03:43:45;13.48;;;12.77;;
351;SDS011;164;50.784;6.496;2023-03-20T03:46:21;15.38;;;14.57;;
351;SDS011;164;50.784;6.496;2023-03-20T03:48:49;15.95;;;15.15;;
351;SDS011;164;50.784;6.496;2023-03-20T03:51:19;15.98;;;14.15;;
351;SDS011;164;50.784;6.496;2023-03-20T03:53:48;17.75;;;16.30;;
351;SDS011;164;50.784;6.496;2023-03-20T03:56:19;17.23;;;16.10;;
351;SDS011;164;50.784;6.496;2023-03-20T03:58:47;15.93;;;14.68;;
351;SDS011;164;50.784;6.496;2023-03-20T04:01:15;17.15;;;14.98;;
351;SDS011;164;50.784;6.496;2023-03-20T04:03:45;17.10;;;14.50;;
351;SDS011;164;50.784;6.496;2023-03-20T04:06:13;18.67;;;16.20;;
351;SDS011;164;50.784;6.496;2023-03-20T04:08:41;17.27;;;14.75;;
351;SDS011;164;50.784;6.496;2023-03-20T04:11:11;16.88;;;15.88;;
351;SDS011;164;50.784;6.496;2023-03-20T04:13:41;16.90;;;14.45;;
351;SDS011;164;50.784;6.496;2023-03-20T04:16:09;19.92;;;15.13;;
351;SDS011;164;50.784;6.496;2023-03-20T04:18:38;17.92;;;16.50;;
351;SDS011;164;50.784;6.496;2023-03-20T04:21:06;15.75;;;14.23;;
351;SDS011;164;50.784;6.496;2023-03-20T04:23:33;15.95;;;14.63;;
351;SDS011;164;50.784;6.496;2023-03-20T04:26:00;18.10;;;16.55;;
351;SDS011;164;50.784;6.496;2023-03-20T04:28:28;18.08;;;15.48;;
351;SDS011;164;50.784;6.496;2023-03-20T04:30:57;24.35;;;17.15;;
351;SDS011;164;50.784;6.496;2023-03-20T04:33:25;17.08;;;15.77;;
351;SDS011;164;50.784;6.496;2023-03-20T04:35:52;16.75;;;15.93;;
351;SDS011;164;50.784;6.496;2023-03-20T04:38:20;20.65;;;17.23;;
351;SDS011;164;50.784;6.496;2023-03-20T04:40:48;21.25;;;17.58;;
351;SDS011;164;50.784;6.496;2023-03-20T04:43:15;20.02;;;18.33;;
351;SDS011;164;50.784;6.496;2023-03-20T04:45:42;19.95;;;17.08;;
351;SDS011;164;50.784;6.496;2023-03-20T04:48:11;20.38;;;18.08;;
351;SDS011;164;50.784;6.496;2023-03-20T04:50:38;20.92;;;19.88;;
351;SDS011;164;50.784;6.496;2023-03-20T04:56:09;20.30;;;19.30;;
351;SDS011;164;50.784;6.496;2023-03-20T04:58:36;18.95;;;17.27;;
351;SDS011;164;50.784;6.496;2023-03-20T05:01:03;18.75;;;17.30;;
351;SDS011;164;50.784;6.496;2023-03-20T05:03:32;17.98;;;16.70;;
351;SDS011;164;50.784;6.496;2023-03-20T05:05:59;18.70;;;16.67;;
351;SDS011;164;50.784;6.496;2023-03-20T05:08:26;18.00;;;16.30;;
351;SDS011;164;50.784;6.496;2023-03-20T05:10:54;18.02;;;15.93;;
351;SDS011;164;50.784;6.496;2023-03-20T05:15:57;18.80;;;16.48;;
351;SDS011;164;50.784;6.496;2023-03-20T05:18:25;17.45;;;15.68;;
351;SDS011;164;50.784;6.496;2023-03-20T05:20:54;18.00;;;17.10;;
351;SDS011;164;50.784;6.496;2023-03-20T05:23:21;18.75;;;15.93;;
351;SDS011;164;50.784;6.496;2023-03-20T05:25:49;20.55;;;16.27;;
351;SDS011;164;50.784;6.496;2023-03-20T05:28:16;16.00;;;15.20;;
351;SDS011;164;50.784;6.496;2023-03-20T05:30:44;19.80;;;17.35;;
351;SDS011;164;50.784;6.496;2023-03-20T05:33:11;18.05;;;16.58;;
351;SDS011;164;50.784;6.496;2023-03-20T05:35:38;17.20;;;15.95;;
351;SDS011;164;50.784;6.496;2023-03-20T05:38:07;16.00;;;15.05;;
351;SDS011;164;50.784;6.496;2023-03-20T05:40:34;18.33;;;15.68;;
351;SDS011;164;50.784;6.496;2023-03-20T05:43:01;18.23;;;16.70;;
351;SDS011;164;50.784;6.496;2023-03-20T05:45:28;16.55;;;14.73;;
351;SDS011;164;50.784;6.496;2023-03-20T05:47:56;15.98;;;14.75;;
351;SDS011;164;50.784;6.496;2023-03-20T05:50:23;14.38;;;13.68;;
351;SDS011;164;50.784;6.496;2023-03-20T05:52:50;14.93;;;14.13;;
351;SDS011;164;50.784;6.496;2023-03-20T05:55:19;14.02;;;13.27;;
351;SDS011;164;50.784;6.496;2023-03-20T05:57:46;15.20;;;14.23;;
351;SDS011;164;50.784;6.496;2023-03-20T06:00:14;13.77;;;13.07;;
351;SDS011;164;50.784;6.496;2023-03-20T06:02:41;14.13;;;12.25;;
351;SDS011;164;50.784;6.496;2023-03-20T06:05:08;13.70;;;12.57;;
351;SDS011;164;50.784;6.496;2023-03-20T06:07:36;14.35;;;13.20;;
351;SDS011;164;50.784;6.496;2023-03-20T06:10:03;15.45;;;12.88;;
351;SDS011;164;50.784;6.496;2023-03-20T06:12:32;13.40;;;12.70;;
351;SDS011;164;50.784;6.496;2023-03-20T06:14:59;12.25;;;11.65;;
351;SDS011;164;50.784;6.496;2023-03-20T06:17:26;14.27;;;12.95;;
351;SDS011;164;50.784;6.496;2023-03-20T06:19:54;14.63;;;12.25;;
351;SDS011;164;50.784;6.496;2023-03-20T06:22:21;16.20;;;12.05;;
351;SDS011;164;50.784;6.496;2023-03-20T06:24:48;14.63;;;13.90;;
351;SDS011;164;50.784;6.496;2023-03-20T06:27:16;15.30;;;13.23;;
351;SDS011;164;50.784;6.496;2023-03-20T06:29:44;13.60;;;12.82;;
351;SDS011;164;50.784;6.496;2023-03-20T06:32:11;15.52;;;12.98;;
351;SDS011;164;50.784;6.496;2023-03-20T06:34:39;15.40;;;12.80;;
351;SDS011;164;50.784;6.496;2023-03-20T06:37:06;14.65;;;12.45;;
351;SDS011;164;50.784;6.496;2023-03-20T06:39:33;14.43;;;12.98;;
351;SDS011;164;50.784;6.496;2023-03-20T06:42:01;11.90;;;10.77;;
351;SDS011;164;50.784;6.496;2023-03-20T06:44:28;14.18;;;10.25;;
351;SDS011;164;50.784;6.496;2023-03-20T06:46:57;11.00;;;10.07;;
351;SDS011;164;50.784;6.496;2023-03-20T06:49:24;13.45;;;12.20;;
351;SDS011;164;50.784;6.496;2023-03-20T06:51:52;11.35;;;9.70;;
351;SDS011;164;50.784;6.496;2023-03-20T06:54:19;11.68;;;9.43;;
351;SDS011;164;50.784;6.496;2023-03-20T06:56:46;13.10;;;10.45;;
351;SDS011;164;50.784;6.496;2023-03-20T06:59:14;13.90;;;7.32;;
351;SDS011;164;50.784;6.496;2023-03-20T07:01:41;6.90;;;6.50;;
351;SDS011;164;50.784;6.496;2023-03-20T07:04:10;8.15;;;7.75;;
351;SDS011;164;50.784;6.496;2023-03-20T07:06:37;7.88;;;6.68;;
351;SDS011;164;50.784;6.496;2023-03-20T07:09:04;8.10;;;6.07;;
351;SDS011;164;50.784;6.496;2023-03-20T07:11:31;10.93;;;7.18;;
351;SDS011;164;50.784;6.496;2023-03-20T07:13:59;7.03;;;6.65;;
351;SDS011;164;50.784;6.496;2023-03-20T07:16:26;7.97;;;5.78;;
351;SDS011;164;50.784;6.496;2023-03-20T07:18:55;7.72;;;5.90;;
351;SDS011;164;50.784;6.496;2023-03-20T07:21:23;6.55;;;5.93;;
351;SDS011;164;50.784;6.496;2023-03-20T07:23:51;9.32;;;8.82;;
351;SDS011;164;50.784;6.496;2023-03-20T07:26:18;7.15;;;5.80;;
351;SDS011;164;50.784;6.496;2023-03-20T07:28:45;6.47;;;5.93;;
351;SDS011;164;50.784;6.496;2023-03-20T07:31:17;5.97;;;5.65;;
351;SDS011;164;50.784;6.496;2023-03-20T07:33:45;6.18;;;4.57;;
351;SDS011;164;50.784;6.496;2023-03-20T07:36:12;6.60;;;4.15;;
351;SDS011;164;50.784;6.496;2023-03-20T07:38:41;5.25;;;4.28;;
351;SDS011;164;50.784;6.496;2023-03-20T07:41:08;4.80;;;4.03;;
351;SDS011;164;50.784;6.496;2023-03-20T07:43:35;5.65;;;4.45;;
351;SDS011;164;50.784;6.496;2023-03-20T07:46:03;7.57;;;4.50;;
351;SDS011;164;50.784;6.496;2023-03-20T07:48:30;9.18;;;4.60;;
351;SDS011;164;50.784;6.496;2023-03-20T07:50:58;4.50;;;4.30;;
351;SDS011;164;50.784;6.496;2023-03-20T07:53:25;5.20;;;4.93;;
351;SDS011;164;50.784;6.496;2023-03-20T07:55:53;6.10;;;4.40;;
351;SDS011;164;50.784;6.496;2023-03-20T07:58:21;4.57;;;4.28;;
351;SDS011;164;50.784;6.496;2023-03-20T08:00:48;4.78;;;4.25;;
351;SDS011;164;50.784;6.496;2023-03-20T08:03:15;5.40;;;5.13;;
351;SDS011;164;50.784;6.496;2023-03-20T08:05:45;5.85;;;5.57;;
351;SDS011;164;50.784;6.496;2023-03-20T08:08:12;5.75;;;4.68;;
351;SDS011;164;50.784;6.496;2023-03-20T08:10:40;5.60;;;5.30;;
351;SDS011;164;50.784;6.496;2023-03-20T08:13:08;5.22;;;4.93;;
351;SDS011;164;50.784;6.496;2023-03-20T08:15:35;6.93;;;6.15;;
351;SDS011;164;50.784;6.496;2023-03-20T08:18:03;6.53;;;5.45;;
351;SDS011;164;50.784;6.496;2023-03-20T08:20:30;6.10;;;5.85;;
351;SDS011;164;50.784;6.496;2023-03-20T08:22:57;9.10;;;5.25;;
351;SDS011;164;50.784;6.496;2023-03-20T08:25:25;11.63;;;8.10;;
351;SDS011;164;50.784;6.496;2023-03-20T08:27:53;7.75;;;7.20;;
351;SDS011;164;50.784;6.496;2023-03-20T08:30:22;7.50;;;6.80;;
351;SDS011;164;50.784;6.496;2023-03-20T08:32:49;8.32;;;7.15;;
351;SDS011;164;50.784;6.496;2023-03-20T08:35:16;8.25;;;6.53;;
351;SDS011;164;50.784;6.496;2023-03-20T08:37:43;7.60;;;6.40;;
351;SDS011;164;50.784;6.496;2023-03-20T08:40:11;8.15;;;6.60;;
351;SDS011;164;50.784;6.496;2023-03-20T08:42:38;7.82;;;7.30;;
351;SDS011;164;50.784;6.496;2023-03-20T08:45:06;8.02;;;7.10;;
351;SDS011;164;50.784;6.496;2023-03-20T08:47:35;7.38;;;6.97;;
351;SDS011;164;50.784;6.496;2023-03-20T08:50:03;10.13;;;7.05;;
351;SDS011;164;50.784;6.496;2023-03-20T08:52:31;10.00;;;8.13;;
351;SDS011;164;50.784;6.496;2023-03-20T08:54:58;9.00;;;7.95;;
351;SDS011;164;50.784;6.496;2023-03-20T08:57:26;7.85;;;7.45;;
351;SDS011;164;50.784;6.496;2023-03-20T08:59:53;7.40;;;7.00;;
351;SDS011;164;50.784;6.496;2023-03-20T09:02:20;9.02;;;6.88;;
351;SDS011;164;50.784;6.496;2023-03-20T09:04:49;9.40;;;7.10;;
351;SDS011;164;50.784;6.496;2023-03-20T09:07:16;8.85;;;6.43;;
351;SDS011;164;50.784;6.496;2023-03-20T09:09:43;7.35;;;6.57;;
351;SDS011;164;50.784;6.496;2023-03-20T09:12:10;7.65;;;6.40;;
351;SDS011;164;50.784;6.496;2023-03-20T09:14:38;6.55;;;6.00;;
351;SDS011;164;50.784;6.496;2023-03-20T09:17:05;6.20;;;5.75;;
351;SDS011;164;50.784;6.496;2023-03-20T09:19:33;7.25;;;5.72;;
351;SDS011;164;50.784;6.496;2023-03-20T09:22:04;5.15;;;4.63;;
351;SDS011;164;50.784;6.496;2023-03-20T09:24:32;5.50;;;4.53;;
351;SDS011;164;50.784;6.496;2023-03-20T09:26:59;4.72;;;3.75;;
351;SDS011;164;50.784;6.496;2023-03-20T09:29:26;5.03;;;3.53;;
351;SDS011;164;50.784;6.496;2023-03-20T09:31:54;3.70;;;3.53;;
351;SDS011;164;50.784;6.496;2023-03-20T09:34:21;4.22;;;2.80;;
351;SDS011;164;50.784;6.496;2023-03-20T09:36:49;3.47;;;3.05;;
351;SDS011;164;50.784;6.496;2023-03-20T09:39:18;6.40;;;4.20;;
351;SDS011;164;50.784;6.496;2023-03-20T09:41:45;3.95;;;3.10;;
351;SDS011;164;50.784;6.496;2023-03-20T09:44:14;4.00;;;2.65;;
351;SDS011;164;50.784;6.496;2023-03-20T09:46:47;4.90;;;3.40;;
351;SDS011;164;50.784;6.496;2023-03-20T09:49:20;5.32;;;3.30;;
351;SDS011;164;50.784;6.496;2023-03-20T09:51:52;4.32;;;3.00;;
351;SDS011;164;50.784;6.496;2023-03-20T09:54:23;4.50;;;2.97;;
351;SDS011;164;50.784;6.496;2023-03-20T09:56:51;4.57;;;3.00;;
351;SDS011;164;50.784;6.496;2023-03-20T09:59:19;4.40;;;2.40;;
351;SDS011;164;50.784;6.496;2023-03-20T10:01:48;4.65;;;2.40;;
351;SDS011;164;50.784;6.496;2023-03-20T10:04:16;5.30;;;3.22;;
351;SDS011;164;50.784;6.496;2023-03-20T10:06:43;4.15;;;2.22;;
351;SDS011;164;50.784;6.496;2023-03-20T10:09:12;3.38;;;2.10;;
351;SDS011;164;50.784;6.496;2023-03-20T10:11:48;5.43;;;2.60;;
351;SDS011;164;50.784;6.496;2023-03-20T10:14:18;4.75;;;2.28;;
351;SDS011;164;50.784;6.496;2023-03-20T10:16:52;5.45;;;3.10;;
351;SDS011;164;50.784;6.496;2023-03-20T10:19:23;3.60;;;2.85;;
351;SDS011;164;50.784;6.496;2023-03-20T10:21:55;5.10;;;2.45;;
351;SDS011;164;50.784;6.496;2023-03-20T10:24:25;3.90;;;2.40;;
351;SDS011;164;50.784;6.496;2023-03-20T10:26:56;3.47;;;2.25;;
351;SDS011;164;50.784;6.496;2023-03-20T10:29:26;2.88;;;2.03;;
351;SDS011;164;50.784;6.496;2023-03-20T10:31:56;3.35;;;2.22;;
351;SDS011;164;50.784;6.496;2023-03-20T10:34:42;4.28;;;2.42;;
351;SDS011;164;50.784;6.496;2023-03-20T10:37:16;5.75;;;2.15;;
351;SDS011;164;50.784;6.496;2023-03-20T10:39:48;3.97;;;2.33;;
351;SDS011;164;50.784;6.496;2023-03-20T10:42:20;3.50;;;2.45;;
351;SDS011;164;50.784;6.496;2023-03-20T10:44:51;5.40;;;2.28;;
351;SDS011;164;50.784;6.496;2023-03-20T10:47:20;3.15;;;2.13;;
351;SDS011;164;50.784;6.496;2023-03-20T10:49:51;6.15;;;2.20;;
351;SDS011;164;50.784;6.496;2023-03-20T10:52:21;5.43;;;1.75;;
351;SDS011;164;50.784;6.496;2023-03-20T10:54:51;3.50;;;2.20;;
351;SDS011;164;50.784;6.496;2023-03-20T10:57:23;6.30;;;3.10;;
351;SDS011;164;50.784;6.496;2023-03-20T10:59:50;3.33;;;2.47;;
351;SDS011;164;50.784;6.496;2023-03-20T11:02:19;3.30;;;2.30;;
351;SDS011;164;50.784;6.496;2023-03-20T11:04:47;4.78;;;2.38;;
351;SDS011;164;50.784;6.496;2023-03-20T11:07:16;2.88;;;2.05;;
351;SDS011;164;50.784;6.496;2023-03-20T11:09:45;4.25;;;2.28;;
351;SDS011;164;50.784;6.496;2023-03-20T11:12:14;2.63;;;2.03;;
351;SDS011;164;50.784;6.496;2023-03-20T11:14:43;3.05;;;2.13;;
351;SDS011;164;50.784;6.496;2023-03-20T11:17:11;2.35;;;2.00;;
351;SDS011;164;50.784;6.496;2023-03-20T11:19:39;3.80;;;2.15;;
351;SDS011;164;50.784;6.496;2023-03-20T11:22:07;2.58;;;1.63;;
351;SDS011;164;50.784;6.496;2023-03-20T11:24:35;2.58;;;1.40;;
351;SDS011;164;50.784;6.496;2023-03-20T11:27:03;1.92;;;1.60;;
351;SDS011;164;50.784;6.496;2023-03-20T11:29:31;2.40;;;1.80;;
351;SDS011;164;50.784;6.496;2023-03-20T11:32:04;4.40;;;2.80;;
351;SDS011;164;50.784;6.496;2023-03-20T11:34:32;4.70;;;2.10;;
351;SDS011;164;50.784;6.496;2023-03-20T11:37:05;5.97;;;1.90;;
351;SDS011;164;50.784;6.496;2023-03-20T11:39:32;3.45;;;2.00;;
351;SDS011;164;50.784;6.496;2023-03-20T11:42:02;3.03;;;1.90;;
351;SDS011;164;50.784;6.496;2023-03-20T11:44:30;4.75;;;1.75;;
351;SDS011;164;50.784;6.496;2023-03-20T11:46:58;2.45;;;1.80;;
351;SDS011;164;50.784;6.496;2023-03-20T11:49:29;4.63;;;1.42;;
351;SDS011;164;50.784;6.496;2023-03-20T11:51:58;2.10;;;1.70;;
351;SDS011;164;50.784;6.496;2023-03-20T11:54:26;4.32;;;2.70;;
351;SDS011;164;50.784;6.496;2023-03-20T11:56:55;6.80;;;3.25;;
351;SDS011;164;50.784;6.496;2023-03-20T11:59:23;4.63;;;2.30;;
351;SDS011;164;50.784;6.496;2023-03-20T12:01:52;3.10;;;1.80;;
351;SDS011;164;50.784;6.496;2023-03-20T12:04:24;1.98;;;1.63;;
351;SDS011;164;50.784;6.496;2023-03-20T12:06:54;2.50;;;1.75;;
351;SDS011;164;50.784;6.496;2023-03-20T12:09:27;3.33;;;1.85;;
351;SDS011;164;50.784;6.496;2023-03-20T12:11:58;3.58;;;1.83;;
351;SDS011;164;50.784;6.496;2023-03-20T12:14:29;3.05;;;2.22;;
351;SDS011;164;50.784;6.496;2023-03-20T12:17:03;3.38;;;1.75;;
351;SDS011;164;50.784;6.496;2023-03-20T12:19:32;5.22;;;1.70;;
351;SDS011;164;50.784;6.496;2023-03-20T12:22:02;2.38;;;1.50;;
351;SDS011;164;50.784;6.496;2023-03-20T12:24:36;4.00;;;1.80;;
351;SDS011;164;50.784;6.496;2023-03-20T12:27:16;3.35;;;1.63;;
351;SDS011;164;50.784;6.496;2023-03-20T12:29:45;2.90;;;2.28;;
351;SDS011;164;50.784;6.496;2023-03-20T12:32:14;7.40;;;2.08;;
351;SDS011;164;50.784;6.496;2023-03-20T12:34:43;2.10;;;1.60;;
351;SDS011;164;50.784;6.496;2023-03-20T12:37:13;5.00;;;2.00;;
351;SDS011;164;50.784;6.496;2023-03-20T12:39:43;3.05;;;1.77;;
351;SDS011;164;50.784;6.496;2023-03-20T12:42:13;1.90;;;1.33;;
351;SDS011;164;50.784;6.496;2023-03-20T12:44:45;2.95;;;1.30;;
351;SDS011;164;50.784;6.496;2023-03-20T12:50:06;9.77;;;2.22;;
351;SDS011;164;50.784;6.496;2023-03-20T12:52:40;6.50;;;1.50;;
351;SDS011;164;50.784;6.496;2023-03-20T12:55:20;9.45;;;2.22;;
351;SDS011;164;50.784;6.496;2023-03-20T12:57:56;5.25;;;2.22;;
351;SDS011;164;50.784;6.496;2023-03-20T13:00:29;4.22;;;1.55;;
351;SDS011;164;50.784;6.496;2023-03-20T13:03:05;5.05;;;2.80;;
351;SDS011;164;50.784;6.496;2023-03-20T13:05:39;4.22;;;2.03;;
351;SDS011;164;50.784;6.496;2023-03-20T13:08:12;4.90;;;2.10;;
351;SDS011;164;50.784;6.496;2023-03-20T13:10:48;3.33;;;1.90;;
351;SDS011;164;50.784;6.496;2023-03-20T13:13:19;4.25;;;2.00;;
351;SDS011;164;50.784;6.496;2023-03-20T13:15:53;3.25;;;1.58;;
351;SDS011;164;50.784;6.496;2023-03-20T13:18:26;5.25;;;2.13;;
351;SDS011;164;50.784;6.496;2023-03-20T13:20:56;2.67;;;1.60;;
351;SDS011;164;50.784;6.496;2023-03-20T13:23:29;7.25;;;1.92;;
351;SDS011;164;50.784;6.496;2023-03-20T13:26:02;5.40;;;2.00;;
351;SDS011;164;50.784;6.496;2023-03-20T13:28:35;6.82;;;1.55;;
351;SDS011;164;50.784;6.496;2023-03-20T13:31:08;3.90;;;2.03;;
351;SDS011;164;50.784;6.496;2023-03-20T13:33:41;3.40;;;1.80;;
351;SDS011;164;50.784;6.496;2023-03-20T13:36:12;3.30;;;1.33;;
351;SDS011;164;50.784;6.496;2023-03-20T13:38:45;5.88;;;2.13;;
351;SDS011;164;50.784;6.496;2023-03-20T13:41:13;4.13;;;1.83;;
351;SDS011;164;50.784;6.496;2023-03-20T13:43:42;5.20;;;2.13;;
351;SDS011;164;50.784;6.496;2023-03-20T13:46:13;4.55;;;1.92;;
351;SDS011;164;50.784;6.496;2023-03-20T13:48:42;6.30;;;2.10;;
351;SDS011;164;50.784;6.496;2023-03-20T13:51:12;2.97;;;1.55;;
351;SDS011;164;50.784;6.496;2023-03-20T13:53:47;3.55;;;1.80;;
351;SDS011;164;50.784;6.496;2023-03-20T13:56:19;2.92;;;1.70;;
351;SDS011;164;50.784;6.496;2023-03-20T13:58:51;2.97;;;1.40;;
351;SDS011;164;50.784;6.496;2023-03-20T14:01:24;4.30;;;1.70;;
351;SDS011;164;50.784;6.496;2023-03-20T14:03:53;2.78;;;1.70;;
351;SDS011;164;50.784;6.496;2023-03-20T14:06:42;2.95;;;1.80;;
351;SDS011;164;50.784;6.496;2023-03-20T14:09:25;8.65;;;3.15;;
351;SDS011;164;50.784;6.496;2023-03-20T14:11:53;4.70;;;2.30;;
351;SDS011;164;50.784;6.496;2023-03-20T14:14:23;6.47;;;2.03;;
351;SDS011;164;50.784;6.496;2023-03-20T14:16:58;3.65;;;2.05;;
351;SDS011;164;50.784;6.496;2023-03-20T14:19:27;3.42;;;2.05;;
351;SDS011;164;50.784;6.496;2023-03-20T14:21:55;4.30;;;2.10;;
351;SDS011;164;50.784;6.496;2023-03-20T14:24:23;8.88;;;2.38;;
351;SDS011;164;50.784;6.496;2023-03-20T14:26:53;22.00;;;5.20;;
351;SDS011;164;50.784;6.496;2023-03-20T14:29:31;5.75;;;3.22;;
351;SDS011;164;50.784;6.496;2023-03-20T14:32:03;7.85;;;2.97;;
351;SDS011;164;50.784;6.496;2023-03-20T14:34:43;4.20;;;2.20;;
351;SDS011;164;50.784;6.496;2023-03-20T14:37:25;5.20;;;2.10;;
351;SDS011;164;50.784;6.496;2023-03-20T14:39:56;4.65;;;2.03;;
351;SDS011;164;50.784;6.496;2023-03-20T14:42:29;6.55;;;2.70;;
351;SDS011;164;50.784;6.496;2023-03-20T14:45:15;3.85;;;2.10;;
351;SDS011;164;50.784;6.496;2023-03-20T14:47:45;8.52;;;3.13;;
351;SDS011;164;50.784;6.496;2023-03-20T14:50:17;4.10;;;2.22;;
351;SDS011;164;50.784;6.496;2023-03-20T14:52:52;9.20;;;2.20;;
351;SDS011;164;50.784;6.496;2023-03-20T14:55:29;5.80;;;1.90;;
351;SDS011;164;50.784;6.496;2023-03-20T14:57:57;3.22;;;2.03;;
351;SDS011;164;50.784;6.496;2023-03-20T15:00:28;3.88;;;1.90;;
351;SDS011;164;50.784;6.496;2023-03-20T15:03:02;4.00;;;2.20;;
351;SDS011;164;50.784;6.496;2023-03-20T15:05:32;3.15;;;1.88;;
351;SDS011;164;50.784;6.496;2023-03-20T15:08:02;3.53;;;1.80;;
351;SDS011;164;50.784;6.496;2023-03-20T15:10:32;7.88;;;2.58;;
351;SDS011;164;50.784;6.496;2023-03-20T15:13:01;4.78;;;1.80;;
351;SDS011;164;50.784;6.496;2023-03-20T15:15:30;5.78;;;2.55;;
351;SDS011;164;50.784;6.496;2023-03-20T15:18:02;2.85;;;1.42;;
351;SDS011;164;50.784;6.496;2023-03-20T15:20:29;4.75;;;1.80;;
351;SDS011;164;50.784;6.496;2023-03-20T15:22:57;4.30;;;1.45;;
351;SDS011;164;50.784;6.496;2023-03-20T15:25:27;3.33;;;1.55;;
351;SDS011;164;50.784;6.496;2023-03-20T15:27:59;6.13;;;2.35;;
351;SDS011;164;50.784;6.496;2023-03-20T15:30:30;4.00;;;1.67;;
351;SDS011;164;50.784;6.496;2023-03-20T15:32:58;3.55;;;1.30;;
351;SDS011;164;50.784;6.496;2023-03-20T15:35:25;4.88;;;1.90;;
351;SDS011;164;50.784;6.496;2023-03-20T15:37:52;2.42;;;0.98;;
351;SDS011;164;50.784;6.496;2023-03-20T15:40:21;4.57;;;2.00;;
351;SDS011;164;50.784;6.496;2023-03-20T15:42:51;4.72;;;1.30;;
351;SDS011;164;50.784;6.496;2023-03-20T15:45:24;3.40;;;1.27;;
351;SDS011;164;50.784;6.496;2023-03-20T15:47:58;2.55;;;1.50;;
351;SDS011;164;50.784;6.496;2023-03-20T15:50:25;6.05;;;2.08;;
351;SDS011;164;50.784;6.496;2023-03-20T15:52:52;2.35;;;1.25;;
351;SDS011;164;50.784;6.496;2023-03-20T15:55:20;3.00;;;1.48;;
351;SDS011;164;50.784;6.496;2023-03-20T15:57:49;3.17;;;1.20;;
351;SDS011;164;50.784;6.496;2023-03-20T16:00:18;3.70;;;1.77;;
351;SDS011;164;50.784;6.496;2023-03-20T16:02:48;3.25;;;1.50;;